Alliston, Canada
Current Conditions -  °F | °C
As of 1:24 PM on Thursday 29 Jan 2015 (Local Time) from CYBN Reporting Station
Light Snow Light Snow  
Wind Chill: 15°   Ceiling: 300
Heat Index: 25°   Visibility: 3mi
Dew Point: 23°   Wind: 9mph
Humidity: 93%   Direction: 150°SSE
Pressure: 29.73"   Gusts: NA
Location:  44.15°N, 79.87°W
Report Text: CYBN 291824Z AUTO 15008KT 3SM -SN VV003 M04/M05 A2973
Loading
Personal Weather Stations






























Interactive Weather Map New forecast layout! Learn more

10-Day Weather Forecast

Advertisements
Track Severe Weather on mobile